Aviation Digital Data Service (ADDS)

Output produced by METARs form (1824 UTC 24 June 2018)
found at http://aviationweather.gov/adds/metars/
 
KACY 241731Z 2418/2518 22007G14KT P6SM SCT045 BKN150 
     TEMPO 2500/2504 5SM -TSRA BKN045CB 
     FM250400 27005KT P6SM FEW040 SCT120 
     FM250800 29008KT P6SM SCT250 
     FM251300 32011KT P6SM FEW250